createdAt,value
2024-04-08T00:00:30.663Z,996.45
2024-04-08T00:01:30.629Z,996.48
2024-04-08T00:02:30.667Z,996.48
2024-04-08T00:03:30.616Z,996.49
2024-04-08T00:04:30.621Z,996.44
2024-04-08T00:05:30.605Z,996.45
2024-04-08T00:06:30.590Z,996.36
2024-04-08T00:07:30.572Z,996.19
2024-04-08T00:08:30.615Z,996.01
2024-04-08T00:09:30.560Z,995.90
2024-04-08T00:10:30.584Z,995.92
2024-04-08T00:11:30.643Z,995.95
2024-04-08T00:12:30.529Z,996.01
2024-04-08T00:13:30.504Z,995.98
2024-04-08T00:14:30.528Z,995.95
2024-04-08T00:15:30.476Z,995.89
2024-04-08T00:16:30.496Z,995.88
2024-04-08T00:17:30.504Z,995.87
2024-04-08T00:18:30.470Z,995.78
2024-04-08T00:19:30.438Z,995.74
2024-04-08T00:20:30.448Z,995.67
2024-04-08T00:21:30.447Z,995.76
2024-04-08T00:22:30.406Z,995.86
2024-04-08T00:23:30.464Z,995.91
2024-04-08T00:24:30.387Z,995.88
2024-04-08T00:25:30.392Z,995.93
2024-04-08T00:26:30.385Z,995.94
2024-04-08T00:27:30.355Z,995.91
2024-04-08T00:28:30.381Z,995.90
2024-04-08T00:29:30.390Z,995.84
2024-04-08T00:30:30.326Z,995.88
2024-04-08T00:31:30.334Z,995.90
2024-04-08T00:32:30.349Z,995.82
2024-04-08T00:33:30.290Z,995.71
2024-04-08T00:34:30.298Z,995.70
2024-04-08T00:35:30.293Z,995.61
2024-04-08T00:36:30.313Z,995.57
2024-04-08T00:37:30.265Z,995.57
2024-04-08T00:38:30.237Z,995.66
2024-04-08T00:39:30.310Z,995.78
2024-04-08T00:40:30.213Z,995.91
2024-04-08T00:41:30.230Z,995.97
2024-04-08T00:42:30.227Z,996.06
2024-04-08T00:43:30.186Z,996.12
2024-04-08T00:44:30.195Z,996.21
2024-04-08T00:45:30.179Z,996.28
2024-04-08T00:46:30.147Z,996.34
2024-04-08T00:47:30.162Z,996.36
2024-04-08T00:48:30.149Z,996.33
2024-04-08T00:49:30.133Z,996.35
2024-04-08T00:50:30.124Z,996.34
2024-04-08T00:51:30.119Z,996.31
2024-04-08T00:52:30.087Z,996.23
2024-04-08T00:53:30.139Z,996.28
2024-04-08T00:54:30.059Z,996.23
2024-04-08T00:55:30.083Z,996.25
2024-04-08T00:56:30.105Z,996.24
2024-04-08T00:57:30.041Z,996.27
2024-04-08T00:58:30.023Z,996.28
2024-04-08T00:59:30.097Z,996.26
2024-04-08T01:00:29.995Z,996.27
2024-04-08T01:01:30.013Z,996.25
2024-04-08T01:02:30.029Z,996.25
2024-04-08T01:03:29.991Z,996.28
2024-04-08T01:04:29.956Z,996.25
2024-04-08T01:05:30.081Z,996.25
2024-04-08T01:06:29.944Z,996.24
2024-04-08T01:07:29.929Z,996.31
2024-04-08T01:08:29.920Z,996.38
2024-04-08T01:09:29.907Z,996.39
2024-04-08T01:10:29.916Z,996.38
2024-04-08T01:11:29.945Z,996.41
2024-04-08T01:12:29.867Z,996.41
2024-04-08T01:13:29.867Z,996.36
2024-04-08T01:14:29.950Z,996.34
2024-04-08T01:15:29.846Z,996.30
2024-04-08T01:16:29.837Z,996.25
2024-04-08T01:17:29.835Z,996.24
2024-04-08T01:18:29.807Z,996.25
2024-04-08T01:19:29.807Z,996.22
2024-04-08T01:20:29.821Z,996.18
2024-04-08T01:21:29.770Z,996.18
2024-04-08T01:22:29.751Z,996.16
2024-04-08T01:23:29.806Z,996.13
2024-04-08T01:24:29.745Z,996.09
2024-04-08T01:25:29.729Z,996.12
2024-04-08T01:26:29.752Z,996.14
2024-04-08T01:27:29.709Z,996.11
2024-04-08T01:28:29.716Z,996.16
2024-04-08T01:29:29.707Z,996.13
2024-04-08T01:30:29.680Z,996.16
2024-04-08T01:31:29.705Z,996.12
2024-04-08T01:32:29.680Z,996.19
2024-04-08T01:33:29.649Z,996.16
2024-04-08T01:34:29.631Z,996.23
2024-04-08T01:35:29.668Z,996.16
2024-04-08T01:36:29.610Z,996.22
2024-04-08T01:37:29.599Z,996.33
2024-04-08T01:38:29.605Z,996.35
2024-04-08T01:39:29.598Z,996.32
2024-04-08T01:40:29.597Z,996.30
2024-04-08T01:41:29.583Z,996.26
2024-04-08T01:42:29.544Z,996.31
2024-04-08T01:43:29.525Z,996.28
2024-04-08T01:44:29.554Z,996.32
2024-04-08T01:45:29.543Z,996.31
2024-04-08T01:46:29.533Z,996.31
2024-04-08T01:47:29.498Z,996.32
2024-04-08T01:48:29.469Z,996.32
2024-04-08T01:49:29.462Z,996.32
2024-04-08T01:50:29.470Z,996.27
2024-04-08T01:51:29.446Z,996.27
2024-04-08T01:52:29.521Z,996.32
2024-04-08T01:53:29.461Z,996.29
2024-04-08T01:54:29.452Z,996.27
2024-04-08T01:55:29.403Z,996.32
2024-04-08T01:56:29.421Z,996.32
2024-04-08T01:57:29.423Z,996.31
2024-04-08T01:58:29.367Z,996.34
2024-04-08T01:59:29.397Z,996.39
2024-04-08T02:00:29.366Z,996.40
2024-04-08T02:01:29.327Z,996.40
2024-04-08T02:02:29.366Z,996.41
2024-04-08T02:03:29.312Z,996.42
2024-04-08T02:04:29.301Z,996.44
2024-04-08T02:05:29.295Z,996.43
2024-04-08T02:06:29.302Z,996.42
2024-04-08T02:07:29.275Z,996.35
2024-04-08T02:08:29.306Z,996.34
2024-04-08T02:09:29.246Z,996.32
2024-04-08T02:10:29.255Z,996.36
2024-04-08T02:11:29.284Z,996.27
2024-04-08T02:12:29.235Z,996.32
2024-04-08T02:13:29.204Z,996.28
2024-04-08T02:14:29.218Z,996.28
2024-04-08T02:15:29.179Z,996.29
2024-04-08T02:16:29.190Z,996.31
2024-04-08T02:17:29.290Z,996.24
2024-04-08T02:18:29.163Z,996.16
2024-04-08T02:19:29.142Z,996.18
2024-04-08T02:20:29.188Z,996.18
2024-04-08T02:21:29.148Z,996.22
2024-04-08T02:22:29.101Z,996.25
2024-04-08T02:23:29.147Z,996.26
2024-04-08T02:24:29.091Z,996.23
2024-04-08T02:25:29.089Z,996.22
2024-04-08T02:26:29.110Z,996.21
2024-04-08T02:27:29.058Z,996.16
2024-04-08T02:28:29.035Z,996.12
2024-04-08T02:29:29.080Z,996.07
2024-04-08T02:30:29.018Z,995.92
2024-04-08T02:31:29.008Z,995.82
2024-04-08T02:32:29.019Z,995.72
2024-04-08T02:33:28.985Z,995.53
2024-04-08T02:34:29.011Z,995.35
2024-04-08T02:35:28.961Z,995.16
2024-04-08T02:36:29.031Z,995.06
2024-04-08T02:37:28.942Z,995.07
2024-04-08T02:38:28.998Z,995.03
2024-04-08T02:39:28.905Z,995.08
2024-04-08T02:40:28.910Z,995.03
2024-04-08T02:41:28.973Z,994.96
2024-04-08T02:42:28.884Z,994.96
2024-04-08T02:43:28.869Z,994.98
2024-04-08T02:45:28.848Z,994.94
2024-04-08T02:46:28.869Z,994.95
2024-04-08T02:47:28.857Z,995.02
2024-04-08T02:48:28.824Z,994.90
2024-04-08T02:49:28.804Z,994.97
2024-04-08T02:50:28.889Z,994.94
2024-04-08T02:51:28.826Z,994.96
2024-04-08T02:52:28.816Z,994.97
2024-04-08T02:53:28.765Z,995.00
2024-04-08T02:54:28.740Z,995.05
2024-04-08T02:55:28.817Z,995.08
2024-04-08T02:56:28.756Z,995.11
2024-04-08T02:57:28.734Z,995.08
2024-04-08T02:58:28.739Z,995.17
2024-04-08T02:59:28.746Z,995.19
2024-04-08T03:00:28.675Z,995.20
2024-04-08T03:01:28.722Z,995.23
2024-04-08T03:02:28.660Z,995.30
2024-04-08T03:03:28.728Z,995.29
2024-04-08T03:04:28.635Z,995.26
2024-04-08T03:05:28.622Z,995.30
2024-04-08T03:06:28.632Z,995.29
2024-04-08T03:07:28.600Z,995.32
2024-04-08T03:08:28.593Z,995.27
2024-04-08T03:09:28.604Z,995.29
2024-04-08T03:10:28.570Z,995.34
2024-04-08T03:11:28.576Z,995.33
2024-04-08T03:12:28.546Z,995.44
2024-04-08T03:13:28.539Z,995.35
2024-04-08T03:14:28.553Z,995.33
2024-04-08T03:15:28.514Z,995.29
2024-04-08T03:16:28.525Z,995.31
2024-04-08T03:17:28.488Z,995.35
2024-04-08T03:18:28.480Z,995.27
2024-04-08T03:19:28.470Z,995.33
2024-04-08T03:20:28.476Z,995.32
2024-04-08T03:21:28.445Z,995.27
2024-04-08T03:22:28.450Z,995.22
2024-04-08T03:23:28.441Z,995.21
2024-04-08T03:24:28.418Z,995.19
2024-04-08T03:25:28.425Z,995.19
2024-04-08T03:26:28.390Z,995.18
2024-04-08T03:27:28.382Z,995.14
2024-04-08T03:28:28.372Z,995.09
2024-04-08T03:29:28.364Z,995.15
2024-04-08T03:30:28.382Z,995.10
2024-04-08T03:31:28.364Z,995.05
2024-04-08T03:32:28.331Z,995.05
2024-04-08T03:33:28.322Z,994.98
2024-04-08T03:34:28.332Z,994.96
2024-04-08T03:35:28.312Z,995.03
2024-04-08T03:36:28.288Z,995.07
2024-04-08T03:37:28.294Z,995.16
2024-04-08T03:38:28.282Z,995.23
2024-04-08T03:39:28.255Z,995.24
2024-04-08T03:40:28.283Z,995.23
2024-04-08T03:41:28.235Z,995.23
2024-04-08T03:42:28.221Z,995.25
2024-04-08T03:43:28.221Z,995.25
2024-04-08T03:44:28.239Z,995.19
2024-04-08T03:45:28.193Z,995.12
2024-04-08T03:46:28.188Z,995.10
2024-04-08T03:47:28.164Z,995.13
2024-04-08T03:48:28.158Z,995.12
2024-04-08T03:49:28.186Z,995.06
2024-04-08T03:50:28.170Z,995.03
2024-04-08T03:51:31.319Z,995.03
2024-04-08T03:52:28.127Z,995.04
2024-04-08T03:53:28.143Z,995.02
2024-04-08T03:54:28.123Z,995.01
2024-04-08T03:55:28.138Z,994.98
2024-04-08T03:56:28.091Z,994.96
2024-04-08T03:57:28.116Z,994.94
2024-04-08T03:58:28.058Z,994.96
2024-04-08T03:59:28.058Z,995.02
2024-04-08T04:00:28.048Z,995.02
2024-04-08T04:01:28.057Z,994.95
2024-04-08T04:02:28.032Z,994.97
2024-04-08T04:03:28.044Z,994.99
2024-04-08T04:04:28.002Z,994.95
2024-04-08T04:05:27.996Z,994.96
2024-04-08T04:06:27.972Z,994.94
2024-04-08T04:07:28.002Z,994.91
2024-04-08T04:08:27.948Z,994.90
2024-04-08T04:09:27.967Z,994.93
2024-04-08T04:10:27.943Z,994.89
2024-04-08T04:11:27.946Z,994.96
2024-04-08T04:12:27.904Z,994.97
2024-04-08T04:13:27.958Z,994.95
2024-04-08T04:14:27.888Z,995.00
2024-04-08T04:15:27.882Z,994.98
2024-04-08T04:16:27.863Z,995.02
2024-04-08T04:17:27.863Z,994.99
2024-04-08T04:18:27.844Z,994.98
2024-04-08T04:19:27.886Z,994.98
2024-04-08T04:20:28.756Z,994.98
2024-04-08T04:21:27.818Z,994.98
2024-04-08T04:22:27.799Z,995.02
2024-04-08T04:23:27.791Z,994.97
2024-04-08T04:24:27.786Z,994.89
2024-04-08T04:25:27.787Z,994.88
2024-04-08T04:26:27.775Z,994.84
2024-04-08T04:27:27.745Z,994.78
2024-04-08T04:28:27.741Z,994.75
2024-04-08T04:29:27.728Z,994.77
2024-04-08T04:30:27.736Z,994.72
2024-04-08T04:31:27.727Z,994.79
2024-04-08T04:32:27.699Z,994.80
2024-04-08T04:33:27.705Z,994.78
2024-04-08T04:34:27.693Z,994.83
2024-04-08T04:35:27.679Z,994.85
2024-04-08T04:36:27.649Z,994.88
2024-04-08T04:37:27.636Z,994.91
2024-04-08T04:38:27.653Z,994.90
2024-04-08T04:39:27.617Z,994.90
2024-04-08T04:40:27.607Z,994.92
2024-04-08T04:41:27.595Z,994.95
2024-04-08T04:42:27.600Z,995.00
2024-04-08T04:43:27.570Z,994.99
2024-04-08T04:44:27.585Z,995.00
2024-04-08T04:45:27.565Z,994.97
2024-04-08T04:46:27.569Z,994.99
2024-04-08T04:47:27.590Z,995.01
2024-04-08T04:48:27.558Z,995.09
2024-04-08T04:49:27.537Z,995.07
2024-04-08T04:50:27.501Z,995.09
2024-04-08T04:51:27.514Z,995.10
2024-04-08T04:52:27.474Z,995.07
2024-04-08T04:53:27.468Z,995.09
2024-04-08T04:54:27.719Z,995.05
2024-04-08T04:55:27.441Z,995.07
2024-04-08T04:56:27.423Z,995.08
2024-04-08T04:57:27.813Z,995.08
2024-04-08T04:58:27.415Z,995.11
2024-04-08T04:59:27.407Z,995.07
2024-04-08T05:00:27.438Z,995.03
2024-04-08T05:01:27.379Z,995.02
2024-04-08T05:02:27.372Z,995.01
2024-04-08T05:03:28.273Z,995.02
2024-04-08T05:04:27.354Z,995.02
2024-04-08T05:05:27.363Z,994.99
2024-04-08T05:06:27.345Z,994.93
2024-04-08T05:07:27.308Z,994.89
2024-04-08T05:08:27.302Z,994.87
2024-04-08T05:09:27.290Z,994.87
2024-04-08T05:10:27.271Z,994.84
2024-04-08T05:11:27.288Z,994.86
2024-04-08T05:12:27.282Z,994.89
2024-04-08T05:13:27.242Z,994.92
2024-04-08T05:14:27.240Z,995.03
2024-04-08T05:15:27.233Z,995.09
2024-04-08T05:16:27.749Z,995.08
2024-04-08T05:17:27.263Z,995.08
2024-04-08T05:18:27.234Z,995.05
2024-04-08T05:19:27.178Z,995.11
2024-04-08T05:20:27.173Z,995.09
2024-04-08T05:21:27.166Z,995.05
2024-04-08T05:22:27.158Z,995.09
2024-04-08T05:23:27.187Z,995.11
2024-04-08T05:24:27.134Z,995.15
2024-04-08T05:25:27.122Z,995.05
2024-04-08T05:26:27.095Z,995.11
2024-04-08T05:27:27.085Z,995.08
2024-04-08T05:28:27.111Z,995.10
2024-04-08T05:29:27.101Z,995.05
2024-04-08T05:30:27.068Z,995.06
2024-04-08T05:31:27.073Z,995.07
2024-04-08T05:32:27.118Z,995.09
2024-04-08T05:33:27.034Z,995.09
2024-04-08T05:34:27.020Z,995.10
2024-04-08T05:35:27.006Z,995.11
2024-04-08T05:36:27.047Z,995.15
2024-04-08T05:37:26.977Z,995.15
2024-04-08T05:38:34.607Z,995.14
2024-04-08T05:39:26.959Z,995.14
2024-04-08T05:40:26.948Z,995.16
2024-04-08T05:41:26.940Z,995.18
2024-04-08T05:42:26.950Z,995.16
2024-04-08T05:43:26.935Z,995.20
2024-04-08T05:44:26.944Z,995.21
2024-04-08T05:45:26.910Z,995.17
2024-04-08T05:46:26.912Z,995.19
2024-04-08T05:47:26.886Z,995.19
2024-04-08T05:48:26.872Z,995.19
2024-04-08T05:49:26.850Z,995.26
2024-04-08T05:50:26.886Z,995.27
2024-04-08T05:51:26.836Z,995.25
2024-04-08T05:52:26.857Z,995.30
2024-04-08T05:53:26.827Z,995.30
2024-04-08T05:54:26.822Z,995.25
2024-04-08T05:55:26.804Z,995.26
2024-04-08T05:56:26.780Z,995.27
2024-04-08T05:57:26.760Z,995.22
2024-04-08T05:58:26.749Z,995.28
2024-04-08T05:59:26.742Z,995.33
2024-04-08T06:00:26.774Z,995.37
2024-04-08T06:01:26.722Z,995.32
2024-04-08T06:02:26.717Z,995.35
2024-04-08T06:03:26.705Z,995.27
2024-04-08T06:04:26.730Z,995.25
2024-04-08T06:05:26.674Z,995.23
2024-04-08T06:06:26.670Z,995.24
2024-04-08T06:07:26.671Z,995.27
2024-04-08T06:08:26.668Z,995.26
2024-04-08T06:09:26.652Z,995.23
2024-04-08T06:10:26.666Z,995.25
2024-04-08T06:11:26.708Z,995.25
2024-04-08T06:12:26.614Z,995.25
2024-04-08T06:13:26.596Z,995.22
2024-04-08T06:14:26.588Z,995.19
2024-04-08T06:15:26.605Z,995.16
2024-04-08T06:16:26.587Z,995.17
2024-04-08T06:17:26.567Z,995.16
2024-04-08T06:18:26.605Z,995.12
2024-04-08T06:19:26.534Z,995.12
2024-04-08T06:20:26.558Z,995.13
2024-04-08T06:21:26.520Z,995.04
2024-04-08T06:22:26.504Z,995.08
2024-04-08T06:23:26.491Z,995.09
2024-04-08T06:24:26.472Z,995.16
2024-04-08T06:25:26.530Z,995.14
2024-04-08T06:26:26.487Z,995.16
2024-04-08T06:27:26.458Z,995.12
2024-04-08T06:28:26.428Z,995.14
2024-04-08T06:29:26.426Z,995.13
2024-04-08T06:30:26.418Z,995.10
2024-04-08T06:31:26.395Z,995.10
2024-04-08T06:32:26.427Z,995.12
2024-04-08T06:33:29.476Z,995.05
2024-04-08T06:34:26.391Z,995.09
2024-04-08T06:35:26.364Z,995.10
2024-04-08T06:36:26.351Z,995.07
2024-04-08T06:37:26.359Z,995.07
2024-04-08T06:38:26.335Z,995.09
2024-04-08T06:39:26.327Z,995.04
2024-04-08T06:40:26.311Z,995.03
2024-04-08T06:41:26.322Z,995.01
2024-04-08T06:42:26.321Z,995.03
2024-04-08T06:43:26.265Z,995.05
2024-04-08T06:44:27.235Z,995.04
2024-04-08T06:45:26.266Z,994.99
2024-04-08T06:46:26.241Z,995.07
2024-04-08T06:47:26.271Z,995.07
2024-04-08T06:48:26.227Z,995.04
2024-04-08T06:49:26.199Z,995.04
2024-04-08T06:50:26.204Z,995.04
2024-04-08T06:51:26.192Z,995.04
2024-04-08T06:52:26.170Z,995.04
2024-04-08T06:53:26.158Z,995.09
2024-04-08T06:54:26.151Z,995.12
2024-04-08T06:55:26.191Z,995.13
2024-04-08T06:56:26.121Z,995.16
2024-04-08T06:57:26.134Z,995.15
2024-04-08T06:58:26.131Z,995.20
2024-04-08T06:59:26.078Z,995.23
2024-04-08T07:00:26.219Z,995.19
2024-04-08T07:01:26.072Z,995.22
2024-04-08T07:02:26.055Z,995.16
2024-04-08T07:03:26.073Z,995.16
2024-04-08T07:04:26.039Z,995.09
2024-04-08T07:05:26.041Z,995.11
2024-04-08T07:06:26.051Z,995.12
2024-04-08T07:07:26.006Z,995.10
2024-04-08T07:08:26.006Z,995.13
2024-04-08T07:09:26.011Z,995.13
2024-04-08T07:10:25.998Z,995.06
2024-04-08T07:11:25.988Z,995.01
2024-04-08T07:12:25.959Z,995.02
2024-04-08T07:13:25.941Z,995.01
2024-04-08T07:14:25.940Z,995.01
2024-04-08T07:15:25.956Z,995.05
2024-04-08T07:16:25.958Z,995.13
2024-04-08T07:17:25.889Z,995.12
2024-04-08T07:18:25.920Z,995.11
2024-04-08T07:19:25.869Z,995.13
2024-04-08T07:20:25.868Z,995.10
2024-04-08T07:21:25.854Z,995.09
2024-04-08T07:22:25.877Z,995.11
2024-04-08T07:23:25.825Z,995.12
2024-04-08T07:24:25.813Z,995.11
2024-04-08T07:25:25.800Z,995.09
2024-04-08T07:26:25.799Z,995.08
2024-04-08T07:27:25.802Z,995.08
2024-04-08T07:28:25.781Z,995.09
2024-04-08T07:29:25.789Z,995.09
2024-04-08T07:30:25.798Z,995.14
2024-04-08T07:31:25.748Z,995.15
2024-04-08T07:32:25.745Z,995.09
2024-04-08T07:33:25.763Z,995.07
2024-04-08T07:34:25.715Z,994.99
2024-04-08T07:35:28.021Z,994.98
2024-04-08T07:36:25.714Z,994.95
2024-04-08T07:37:25.671Z,994.91
2024-04-08T07:38:25.685Z,994.92
2024-04-08T07:39:29.343Z,994.81
2024-04-08T07:40:26.662Z,994.82
2024-04-08T07:41:25.655Z,994.76
2024-04-08T07:42:25.631Z,994.73
2024-04-08T07:43:25.691Z,994.70
2024-04-08T07:44:25.624Z,994.77
2024-04-08T07:45:25.592Z,994.76
2024-04-08T07:46:25.622Z,994.82
2024-04-08T07:47:25.576Z,994.77
2024-04-08T07:48:25.575Z,994.81
2024-04-08T07:49:25.572Z,994.79
2024-04-08T07:50:25.532Z,994.80
2024-04-08T07:51:25.559Z,994.83
2024-04-08T07:52:26.469Z,994.82
2024-04-08T07:53:25.499Z,994.84
2024-04-08T07:54:25.508Z,994.83
2024-04-08T07:55:25.484Z,994.82
2024-04-08T07:56:25.476Z,994.87
2024-04-08T07:57:25.481Z,994.86
2024-04-08T07:58:25.452Z,994.81
2024-04-08T07:59:25.437Z,994.77
2024-04-08T08:00:25.425Z,994.75
2024-04-08T08:01:25.417Z,994.76
2024-04-08T08:02:25.415Z,994.73
2024-04-08T08:03:25.422Z,994.80
2024-04-08T08:04:25.414Z,994.75
2024-04-08T08:05:25.390Z,994.78
2024-04-08T08:06:25.402Z,994.80
2024-04-08T08:07:25.399Z,994.75
2024-04-08T08:08:25.349Z,994.74
2024-04-08T08:09:25.328Z,994.77
2024-04-08T08:10:25.327Z,994.84
2024-04-08T08:11:25.324Z,994.79
2024-04-08T08:12:25.301Z,994.82
2024-04-08T08:13:25.331Z,994.82
2024-04-08T08:14:25.281Z,994.85
2024-04-08T08:15:25.276Z,994.81
2024-04-08T08:16:25.256Z,994.81
2024-04-08T08:17:25.350Z,994.82
2024-04-08T08:18:25.388Z,994.83
2024-04-08T08:19:25.253Z,994.81
2024-04-08T08:20:25.222Z,994.80
2024-04-08T08:21:25.218Z,994.81
2024-04-08T08:22:25.194Z,994.82
2024-04-08T08:23:25.184Z,994.83
2024-04-08T08:24:25.173Z,994.82
2024-04-08T08:25:25.234Z,994.83
2024-04-08T08:26:25.158Z,994.86
2024-04-08T08:27:25.144Z,994.80
2024-04-08T08:28:25.152Z,994.70
2024-04-08T08:29:25.122Z,994.78
2024-04-08T08:30:25.123Z,994.76
2024-04-08T08:31:25.171Z,994.75
2024-04-08T08:32:25.083Z,994.76
2024-04-08T08:33:25.074Z,994.77
2024-04-08T08:34:25.115Z,994.70
2024-04-08T08:35:25.079Z,994.73
2024-04-08T08:36:25.044Z,994.71
2024-04-08T08:37:25.056Z,994.71
2024-04-08T08:38:25.020Z,994.66
2024-04-08T08:39:25.005Z,994.63
2024-04-08T08:40:25.013Z,994.58
2024-04-08T08:41:24.985Z,994.60
2024-04-08T08:42:24.994Z,994.60
2024-04-08T08:43:24.989Z,994.60
2024-04-08T08:44:24.956Z,994.58
2024-04-08T08:45:25.034Z,994.67
2024-04-08T08:46:24.955Z,994.60
2024-04-08T08:47:24.956Z,994.56
2024-04-08T08:48:24.978Z,994.53
2024-04-08T08:49:24.906Z,994.56
2024-04-08T08:50:24.900Z,994.58
2024-04-08T08:51:24.881Z,994.53
2024-04-08T08:52:24.906Z,994.49
2024-04-08T08:53:24.887Z,994.51
2024-04-08T08:54:24.854Z,994.50
2024-04-08T08:55:24.844Z,994.48
2024-04-08T08:56:24.839Z,994.52
2024-04-08T08:57:24.815Z,994.53
2024-04-08T08:58:24.812Z,994.51
2024-04-08T08:59:24.824Z,994.56
2024-04-08T09:00:24.809Z,994.61
2024-04-08T09:01:24.774Z,994.58
2024-04-08T09:02:24.761Z,994.56
2024-04-08T09:03:24.741Z,994.54
2024-04-08T09:04:24.799Z,994.52
2024-04-08T09:05:24.793Z,994.56
2024-04-08T09:06:24.724Z,994.51
2024-04-08T09:07:24.732Z,994.49
2024-04-08T09:08:24.736Z,994.50
2024-04-08T09:09:24.688Z,994.51
2024-04-08T09:10:24.689Z,994.50
2024-04-08T09:11:24.750Z,994.45
2024-04-08T09:12:24.647Z,994.42
2024-04-08T09:13:24.656Z,994.39
2024-04-08T09:14:24.645Z,994.37
2024-04-08T09:15:27.217Z,994.38
2024-04-08T09:16:24.617Z,994.41
2024-04-08T09:17:24.637Z,994.35
2024-04-08T09:18:24.690Z,994.28
2024-04-08T09:19:24.583Z,994.29
2024-04-08T09:20:24.561Z,994.28
2024-04-08T09:21:24.556Z,994.33
2024-04-08T09:22:24.542Z,994.31
2024-04-08T09:23:24.532Z,994.33
2024-04-08T09:24:24.552Z,994.31
2024-04-08T09:25:24.510Z,994.33
2024-04-08T09:26:24.498Z,994.27
2024-04-08T09:27:24.576Z,994.33
2024-04-08T09:28:24.486Z,994.27
2024-04-08T09:29:24.524Z,994.23
2024-04-08T09:30:24.486Z,994.30
2024-04-08T09:31:24.451Z,994.29
2024-04-08T09:32:24.439Z,994.34
2024-04-08T09:33:24.439Z,994.34
2024-04-08T09:34:24.424Z,994.39
2024-04-08T09:35:24.435Z,994.38
2024-04-08T09:36:24.407Z,994.40
2024-04-08T09:37:24.407Z,994.37
2024-04-08T09:38:24.372Z,994.38
2024-04-08T09:39:24.360Z,994.35
2024-04-08T09:40:24.357Z,994.39
2024-04-08T09:41:24.347Z,994.37
2024-04-08T09:42:24.372Z,994.35
2024-04-08T09:43:24.315Z,994.33
2024-04-08T09:44:24.315Z,994.27
2024-04-08T09:45:24.321Z,994.24
2024-04-08T09:46:24.314Z,994.29
2024-04-08T09:47:24.310Z,994.27
2024-04-08T09:48:24.344Z,994.21
2024-04-08T09:49:26.008Z,994.24
2024-04-08T09:50:24.237Z,994.21
2024-04-08T09:51:24.250Z,994.24
2024-04-08T09:52:24.253Z,994.26
2024-04-08T09:53:24.218Z,994.28
2024-04-08T09:54:24.219Z,994.28
2024-04-08T09:55:24.192Z,994.27
2024-04-08T09:56:24.174Z,994.29
2024-04-08T09:57:24.183Z,994.24
2024-04-08T09:58:24.169Z,994.27
2024-04-08T09:59:24.152Z,994.24
2024-04-08T10:00:24.190Z,994.29
2024-04-08T10:01:24.153Z,994.26
2024-04-08T10:02:24.157Z,994.27
2024-04-08T10:03:24.101Z,994.30
2024-04-08T10:04:24.102Z,994.26
2024-04-08T10:05:24.078Z,994.27
2024-04-08T10:06:24.062Z,994.23
2024-04-08T10:07:24.055Z,994.29
2024-04-08T10:08:24.077Z,994.20
2024-04-08T10:09:24.035Z,994.22
2024-04-08T10:10:24.024Z,994.20
2024-04-08T10:11:24.183Z,994.20
2024-04-08T10:12:24.050Z,994.16
2024-04-08T10:13:23.995Z,994.20
2024-04-08T10:14:23.977Z,994.18
2024-04-08T10:15:23.973Z,994.24
2024-04-08T10:16:23.954Z,994.17
2024-04-08T10:17:23.973Z,994.23
2024-04-08T10:18:24.060Z,994.18
2024-04-08T10:19:23.925Z,994.19
2024-04-08T10:20:23.919Z,994.14
2024-04-08T10:21:23.941Z,994.13
2024-04-08T10:22:23.913Z,994.17
2024-04-08T10:23:23.881Z,994.17
2024-04-08T10:24:23.983Z,994.21
2024-04-08T10:25:24.269Z,994.22
2024-04-08T10:26:23.855Z,994.14
2024-04-08T10:27:23.862Z,994.14
2024-04-08T10:28:23.824Z,994.06
2024-04-08T10:29:23.819Z,994.01
2024-04-08T10:30:23.831Z,994.04
2024-04-08T10:31:25.173Z,994.01
2024-04-08T10:32:23.808Z,994.09
2024-04-08T10:33:23.989Z,994.11
2024-04-08T10:34:23.788Z,994.10
2024-04-08T10:35:23.756Z,994.11
2024-04-08T10:36:24.094Z,994.15
2024-04-08T10:37:25.635Z,994.16
2024-04-08T10:38:23.715Z,994.18
2024-04-08T10:39:23.711Z,994.12
2024-04-08T10:40:23.722Z,994.08
2024-04-08T10:41:23.704Z,994.08
2024-04-08T10:42:23.712Z,994.02
2024-04-08T10:43:23.696Z,994.06
2024-04-08T10:44:23.655Z,994.02
2024-04-08T10:45:23.684Z,993.96
2024-04-08T10:46:23.675Z,993.91
2024-04-08T10:47:23.697Z,993.92
2024-04-08T10:48:23.898Z,993.93
2024-04-08T10:49:23.621Z,993.95
2024-04-08T10:50:23.605Z,993.91
2024-04-08T10:51:23.581Z,993.87
2024-04-08T10:52:23.618Z,993.89
2024-04-08T10:53:23.561Z,993.81
2024-04-08T10:54:23.610Z,993.80
2024-04-08T10:55:23.588Z,993.73
2024-04-08T10:56:23.530Z,993.75
2024-04-08T10:57:23.523Z,993.64
2024-04-08T10:58:23.511Z,993.53
2024-04-08T10:59:23.510Z,993.51
2024-04-08T11:00:23.615Z,993.43
2024-04-08T11:01:23.515Z,993.47
2024-04-08T11:02:23.465Z,993.48
2024-04-08T11:03:23.537Z,993.55
2024-04-08T11:04:23.520Z,993.59
2024-04-08T11:05:23.456Z,993.70
2024-04-08T11:06:23.507Z,993.77
2024-04-08T11:07:23.477Z,993.79
2024-04-08T11:08:23.425Z,993.73
2024-04-08T11:09:23.536Z,993.72
2024-04-08T11:10:23.483Z,993.66
2024-04-08T11:11:23.400Z,993.64
2024-04-08T11:12:23.428Z,993.63
2024-04-08T11:13:23.385Z,993.61
2024-04-08T11:14:23.336Z,993.63
2024-04-08T11:15:23.343Z,993.57
2024-04-08T11:16:23.319Z,993.56
2024-04-08T11:17:23.393Z,993.60
2024-04-08T11:18:23.584Z,993.60
2024-04-08T11:19:23.302Z,993.53
2024-04-08T11:20:23.264Z,993.51
2024-04-08T11:21:23.289Z,993.48
2024-04-08T11:22:23.263Z,993.48
2024-04-08T11:23:23.255Z,993.52
2024-04-08T11:24:23.364Z,993.55
2024-04-08T11:25:23.229Z,993.61
2024-04-08T11:26:23.222Z,993.63
2024-04-08T11:27:23.305Z,993.59
2024-04-08T11:28:23.184Z,993.60
2024-04-08T11:29:23.176Z,993.61
2024-04-08T11:30:23.400Z,993.58
2024-04-08T11:31:23.147Z,993.51
2024-04-08T11:32:23.139Z,993.49
2024-04-08T11:33:23.350Z,993.46
2024-04-08T11:34:23.116Z,993.46
2024-04-08T11:35:23.112Z,993.42
2024-04-08T11:36:23.193Z,993.47
2024-04-08T11:37:23.116Z,993.39
2024-04-08T11:38:34.326Z,993.42
2024-04-08T11:39:24.141Z,993.52
2024-04-08T11:40:23.084Z,993.40
2024-04-08T11:41:23.053Z,993.40
2024-04-08T11:42:23.100Z,993.41
2024-04-08T11:43:23.073Z,993.39
2024-04-08T11:44:23.043Z,993.35
2024-04-08T11:45:23.608Z,993.37
2024-04-08T11:46:23.097Z,993.40
2024-04-08T11:47:23.094Z,993.34
2024-04-08T11:48:23.116Z,993.35
2024-04-08T11:49:22.995Z,993.24
2024-04-08T11:50:22.974Z,993.24
2024-04-08T11:51:23.132Z,993.25
2024-04-08T11:52:22.928Z,993.34
2024-04-08T11:53:22.933Z,993.34
2024-04-08T11:54:23.012Z,993.37
2024-04-08T11:55:22.912Z,993.42
2024-04-08T11:56:22.879Z,993.42
2024-04-08T11:57:22.909Z,993.36
2024-04-08T11:58:22.863Z,993.39
2024-04-08T11:59:22.863Z,993.33
2024-04-08T12:00:22.936Z,993.31
2024-04-08T12:01:23.069Z,993.32
2024-04-08T12:02:22.810Z,993.27
2024-04-08T12:03:22.857Z,993.28
2024-04-08T12:04:22.804Z,993.27
2024-04-08T12:05:22.798Z,993.29
2024-04-08T12:06:22.845Z,993.26
2024-04-08T12:07:22.843Z,993.28
2024-04-08T12:08:22.760Z,993.22
2024-04-08T12:09:22.754Z,993.24
2024-04-08T12:10:22.801Z,993.21
2024-04-08T12:11:22.768Z,993.14
2024-04-08T12:12:22.748Z,993.10
2024-04-08T12:13:22.723Z,993.07
2024-04-08T12:14:22.707Z,993.03
2024-04-08T12:15:22.807Z,993.02
2024-04-08T12:16:22.680Z,993.00
2024-04-08T12:17:22.667Z,992.97
2024-04-08T12:18:22.731Z,992.94
2024-04-08T12:19:22.650Z,993.00
2024-04-08T12:20:22.640Z,993.06
2024-04-08T12:21:22.736Z,993.11
2024-04-08T12:22:22.645Z,993.16
2024-04-08T12:23:22.603Z,993.12
2024-04-08T12:24:22.669Z,993.10
2024-04-08T12:25:22.626Z,993.09
2024-04-08T12:26:22.570Z,993.10
2024-04-08T12:27:22.730Z,993.09
2024-04-08T12:28:22.559Z,993.10
2024-04-08T12:29:22.557Z,993.20